Time;durP1;ratioP1;P1;durP2;ratioP2;P2;SDS_P1;SDS_P2;PMS_P1;PMS_P2;Temp;Humidity;BMP_temperature;BMP_pressure;BME280_temperature;BME280_humidity;BME280_pressure;Samples;Min_cycle;Max_cycle;Signal;HPM_P1;HPM_P2
2022/02/23 00:01:58;;;;;;;2.27;1.23;;;5.30;96.30;;;;;;5053596;28;20541;-80
2022/02/23 00:04:23;;;;;;;2.97;0.90;;;5.30;96.30;;;;;;5035511;28;20191;-82
2022/02/23 00:06:49;;;;;;;3.03;0.97;;;5.30;96.30;;;;;;5053691;28;20699;-82
2022/02/23 00:09:14;;;;;;;1.20;1.10;;;5.30;96.30;;;;;;5035175;28;20199;-82
2022/02/23 00:11:40;;;;;;;1.10;0.70;;;5.30;96.30;;;;;;5035808;28;20178;-82
2022/02/23 00:14:05;;;;;;;1.30;0.87;;;5.30;96.30;;;;;;5035631;28;20206;-82
2022/02/23 00:16:31;;;;;;;1.40;1.17;;;5.30;96.30;;;;;;5053459;28;20541;-82
2022/02/23 00:18:56;;;;;;;1.50;1.07;;;5.30;96.30;;;;;;5035310;28;20322;-81
2022/02/23 00:21:22;;;;;;;2.43;1.00;;;5.30;96.30;;;;;;5035350;28;20172;-82
2022/02/23 00:23:47;;;;;;;1.47;0.90;;;5.20;96.30;;;;;;5035135;28;20555;-81
2022/02/23 00:26:13;;;;;;;3.60;1.03;;;5.20;96.30;;;;;;5053494;28;20183;-81
2022/02/23 00:28:38;;;;;;;1.30;0.80;;;5.30;96.30;;;;;;5034283;28;20206;-81
2022/02/23 00:31:04;;;;;;;1.47;0.80;;;5.20;96.30;;;;;;5035395;28;20182;-82
2022/02/23 00:33:29;;;;;;;2.53;0.87;;;5.30;96.30;;;;;;5053369;28;20644;-82
2022/02/23 00:35:55;;;;;;;2.17;1.03;;;5.30;96.30;;;;;;5053183;28;20659;-82
2022/02/23 00:38:20;;;;;;;1.10;0.80;;;5.30;96.30;;;;;;5034371;28;20203;-82
2022/02/23 00:40:46;;;;;;;3.87;0.77;;;5.20;96.30;;;;;;5052913;28;20178;-82
2022/02/23 00:43:11;;;;;;;1.97;1.00;;;5.20;96.30;;;;;;5052795;28;20247;-82
2022/02/23 00:45:37;;;;;;;5.43;1.50;;;5.20;96.30;;;;;;5034834;28;20198;-82
2022/02/23 00:48:03;;;;;;;2.33;0.97;;;5.20;96.30;;;;;;5052266;28;20735;-81
2022/02/23 00:50:28;;;;;;;1.93;0.90;;;5.20;96.30;;;;;;5052436;28;20172;-80
2022/02/23 00:52:54;;;;;;;3.10;1.17;;;5.10;96.30;;;;;;5034601;28;20225;-79
2022/02/23 00:55:19;;;;;;;2.83;1.00;;;5.00;96.30;;;;;;5034345;28;20229;-78
2022/02/23 00:57:45;;;;;;;4.80;1.10;;;5.10;96.30;;;;;;5033643;28;20695;-76
2022/02/23 05:01:55;;;;;;;12.00;2.10;;;2.60;96.30;;;;;;5273426;23;20584;-75
2022/02/23 05:04:21;;;;;;;7.10;3.10;;;2.60;96.30;;;;;;4973251;28;20500;-76
2022/02/23 05:06:47;;;;;;;8.23;1.93;;;2.60;96.30;;;;;;4973366;28;20217;-78
2022/02/23 05:09:12;;;;;;;9.37;1.53;;;2.50;96.30;;;;;;4972872;28;20401;-79
2022/02/23 05:11:38;;;;;;;11.80;2.30;;;2.60;96.30;;;;;;4955982;28;20679;-79
2022/02/23 05:14:04;;;;;;;16.40;2.00;;;2.50;96.30;;;;;;4975664;28;20170;-81
2022/02/23 05:16:29;;;;;;;11.87;1.90;;;2.50;96.30;;;;;;4959730;28;20212;-81
2022/02/23 05:18:54;;;;;;;12.53;2.13;;;2.50;96.30;;;;;;4960073;28;20687;-81
2022/02/23 05:23:55;;;;;;;8.67;2.87;;;2.50;96.30;;;;;;5094755;23;20310;-78
2022/02/23 05:26:21;;;;;;;10.43;1.80;;;2.50;96.30;;;;;;4959569;28;20911;-78
2022/02/23 05:28:47;;;;;;;10.70;2.53;;;2.50;96.30;;;;;;4976329;28;20257;-77
2022/02/23 05:31:12;;;;;;;12.13;1.87;;;2.50;96.30;;;;;;4976968;28;20278;-78
2022/02/23 05:33:38;;;;;;;17.83;2.57;;;2.40;96.30;;;;;;4959633;28;20438;-78
2022/02/23 05:36:04;;;;;;;12.33;2.53;;;2.40;96.30;;;;;;4977020;28;20202;-78
2022/02/23 05:38:29;;;;;;;10.80;2.60;;;2.30;96.30;;;;;;4976501;28;20271;-77
2022/02/23 05:40:57;;;;;;;13.93;2.00;;;2.30;96.30;;;;;;4959378;28;20457;-78
2022/02/23 05:43:23;;;;;;;11.77;1.80;;;2.30;96.30;;;;;;4977002;28;20171;-78
2022/02/23 05:45:48;;;;;;;9.50;2.30;;;2.30;96.30;;;;;;4976694;28;20491;-78
2022/02/23 05:48:14;;;;;;;6.93;1.53;;;2.40;96.30;;;;;;4975646;28;20182;-79
2022/02/23 05:50:40;;;;;;;13.43;1.80;;;2.40;96.30;;;;;;4976330;28;20285;-78
2022/02/23 05:53:06;;;;;;;13.63;2.60;;;2.40;96.30;;;;;;4976335;28;20178;-78
2022/02/23 05:55:31;;;;;;;15.33;2.37;;;2.50;96.30;;;;;;4959137;28;20487;-77
2022/02/23 05:57:57;;;;;;;17.87;3.00;;;2.40;96.30;;;;;;4975661;28;20565;-77
2022/02/23 06:00:22;;;;;;;4.97;1.50;;;2.50;96.30;;;;;;4976251;28;20225;-78
2022/02/23 06:02:48;;;;;;;8.93;1.97;;;2.50;96.30;;;;;;4976167;28;20707;-78
2022/02/23 06:05:13;;;;;;;8.33;1.80;;;2.50;96.30;;;;;;4958881;28;20225;-78
2022/02/23 06:07:39;;;;;;;15.23;3.47;;;2.50;96.30;;;;;;4975463;28;20178;-78
2022/02/23 06:10:05;;;;;;;5.70;1.70;;;2.60;96.30;;;;;;4958584;28;20175;-78
2022/02/23 06:12:31;;;;;;;9.83;2.13;;;2.60;96.30;;;;;;4958720;28;20444;-78
2022/02/23 06:14:56;;;;;;;14.83;2.33;;;2.60;96.30;;;;;;4975695;28;20421;-77
2022/02/23 06:17:22;;;;;;;11.30;2.50;;;2.60;96.30;;;;;;4975693;28;20205;-78
2022/02/23 06:19:47;;;;;;;11.90;2.70;;;2.60;96.30;;;;;;4975513;28;20233;-78
2022/02/23 06:22:13;;;;;;;8.40;2.10;;;2.60;96.30;;;;;;4958452;28;20209;-78
2022/02/23 06:24:38;;;;;;;7.53;1.93;;;2.60;96.30;;;;;;4975656;28;20159;-78
2022/02/23 06:27:04;;;;;;;9.87;2.00;;;2.70;96.30;;;;;;4975238;28;20185;-78
2022/02/23 06:29:29;;;;;;;13.83;2.60;;;2.70;96.30;;;;;;4975121;28;20179;-78
2022/02/23 06:32:03;;;;;;;10.10;2.53;;;2.70;96.30;;;;;;4975607;28;20198;-78
2022/02/23 06:34:28;;;;;;;4.37;1.50;;;2.80;96.30;;;;;;4958002;28;20241;-78
2022/02/23 06:36:54;;;;;;;8.03;1.37;;;2.80;96.30;;;;;;4975549;28;20819;-78
2022/02/23 06:39:20;;;;;;;12.60;2.93;;;2.80;96.30;;;;;;4974824;28;20222;-77
2022/02/23 06:41:48;;;;;;;7.97;1.93;;;2.80;96.30;;;;;;4975340;28;20206;-78
2022/02/23 06:44:18;;;;;;;14.10;2.40;;;2.90;96.30;;;;;;4957985;28;20417;-78
2022/02/23 06:46:44;;;;;;;6.33;3.10;;;2.90;96.30;;;;;;4975442;28;20453;-78
2022/02/23 06:49:10;;;;;;;10.40;2.70;;;2.90;96.30;;;;;;4957400;28;20430;-78
2022/02/23 06:51:36;;;;;;;8.70;2.43;;;2.90;96.30;;;;;;4957926;28;20568;-77
2022/02/23 06:54:02;;;;;;;17.67;2.30;;;2.90;96.30;;;;;;4975170;28;20182;-78
2022/02/23 06:56:27;;;;;;;11.50;2.40;;;2.90;96.30;;;;;;4975428;28;20498;-78
2022/02/23 06:58:52;;;;;;;11.80;1.83;;;3.00;96.30;;;;;;4974405;28;20679;-78
2022/02/23 07:01:19;;;;;;;12.97;3.13;;;3.00;96.30;;;;;;4974913;28;20198;-79
2022/02/23 07:03:46;;;;;;;9.00;2.00;;;3.10;96.30;;;;;;4975962;28;20174;-79
2022/02/23 07:06:13;;;;;;;7.20;2.47;;;3.10;96.30;;;;;;4958960;28;20938;-79
2022/02/23 07:08:43;;;;;;;8.17;1.90;;;3.10;96.30;;;;;;4976270;28;20440;-79
2022/02/23 07:11:09;;;;;;;12.90;2.10;;;3.10;96.30;;;;;;4976149;28;20583;-79
2022/02/23 07:13:34;;;;;;;15.50;2.73;;;3.10;96.30;;;;;;4958281;28;20488;-79
2022/02/23 07:16:00;;;;;;;8.17;2.00;;;3.20;96.30;;;;;;4975788;28;20620;-79
2022/02/23 07:18:27;;;;;;;16.63;2.30;;;3.10;96.30;;;;;;4974645;28;20206;-80
2022/02/23 07:20:52;;;;;;;17.63;3.67;;;3.20;96.30;;;;;;4971787;28;20190;-79
2022/02/23 07:23:18;;;;;;;5.53;1.70;;;3.30;96.30;;;;;;4962735;28;20801;-77
2022/02/23 07:25:43;;;;;;;10.37;2.03;;;3.30;96.30;;;;;;4952625;28;20698;-80
2022/02/23 07:28:09;;;;;;;14.90;3.17;;;3.40;96.30;;;;;;4971859;28;20266;-79
2022/02/23 07:30:34;;;;;;;13.40;1.50;;;3.40;96.30;;;;;;4975140;28;20272;-79
2022/02/23 07:33:00;;;;;;;9.80;2.33;;;3.40;96.30;;;;;;4974783;28;20181;-79
2022/02/23 07:35:27;;;;;;;21.67;3.30;;;3.30;96.30;;;;;;4974794;28;20179;-78
2022/02/23 07:37:54;;;;;;;8.43;2.00;;;3.30;96.30;;;;;;4955721;28;20206;-78
2022/02/23 07:40:22;;;;;;;8.43;2.20;;;3.30;96.30;;;;;;4974099;28;20536;-78
2022/02/23 07:42:48;;;;;;;11.67;1.93;;;3.50;96.30;;;;;;4974145;28;20464;-78
2022/02/23 07:45:14;;;;;;;13.83;1.73;;;3.50;96.30;;;;;;4974426;28;20412;-79
2022/02/23 07:47:40;;;;;;;13.80;2.40;;;3.60;96.30;;;;;;4956767;28;20513;-78
2022/02/23 07:50:11;;;;;;;6.40;2.00;;;3.70;96.30;;;;;;4974833;28;20178;-78
2022/02/23 07:52:37;;;;;;;12.07;2.60;;;3.90;96.30;;;;;;4956633;28;20179;-78
2022/02/23 07:55:04;;;;;;;13.30;1.93;;;4.10;96.30;;;;;;4965832;28;20429;-78
2022/02/23 07:57:29;;;;;;;12.30;1.83;;;4.20;96.30;;;;;;4973812;28;20452;-78
2022/02/23 07:59:55;;;;;;;9.67;2.33;;;4.30;96.30;;;;;;4974125;28;20418;-79
2022/02/23 08:02:21;;;;;;;11.90;2.80;;;4.30;96.30;;;;;;4974347;28;20191;-78
2022/02/23 08:04:52;;;;;;;19.73;2.60;;;4.40;96.30;;;;;;4974094;28;20213;-79
2022/02/23 08:07:21;;;;;;;13.80;2.37;;;4.50;96.30;;;;;;4956513;28;20483;-78
2022/02/23 08:09:47;;;;;;;8.97;2.30;;;4.30;96.30;;;;;;4955807;28;20425;-79
2022/02/23 08:12:13;;;;;;;10.17;1.77;;;4.40;96.30;;;;;;4973843;28;20425;-78
2022/02/23 08:14:39;;;;;;;11.43;1.87;;;4.40;96.30;;;;;;4956560;28;20175;-78
2022/02/23 08:19:51;;;;;;;15.13;2.80;;;4.60;96.30;;;;;;4974112;28;20397;-78
2022/02/23 08:22:17;;;;;;;8.50;2.53;;;4.50;96.30;;;;;;4973622;28;20821;-78
2022/02/23 08:24:45;;;;;;;12.80;2.90;;;4.50;96.30;;;;;;4956463;28;20422;-78
2022/02/23 08:27:16;;;;;;;9.80;2.50;;;4.50;96.30;;;;;;4973579;28;20930;-78
2022/02/23 08:29:42;;;;;;;8.03;1.70;;;4.70;96.30;;;;;;4973567;28;20488;-79
2022/02/23 08:32:10;;;;;;;8.43;1.50;;;4.80;96.30;;;;;;4973540;28;20472;-78
2022/02/23 08:34:37;;;;;;;12.20;2.50;;;4.80;96.30;;;;;;4956313;28;20445;-78
2022/02/23 08:37:03;;;;;;;9.20;1.90;;;5.00;96.30;;;;;;4973581;28;20432;-77
2022/02/23 08:39:29;;;;;;;6.33;1.53;;;5.30;96.30;;;;;;4973322;28;20453;-79
2022/02/23 08:41:56;;;;;;;16.23;2.83;;;5.20;96.30;;;;;;4973383;28;20189;-77
2022/02/23 08:44:22;;;;;;;9.70;1.80;;;5.20;96.30;;;;;;4956050;28;20414;-78
2022/02/23 08:46:48;;;;;;;10.93;2.03;;;5.20;96.30;;;;;;4956225;28;20414;-77
2022/02/23 08:49:15;;;;;;;8.33;1.63;;;5.30;96.30;;;;;;4972902;28;20416;-78
2022/02/23 08:51:44;;;;;;;11.27;2.17;;;5.30;96.30;;;;;;4956147;28;20453;-78
2022/02/23 08:54:11;;;;;;;3.77;1.87;;;5.20;96.30;;;;;;4973311;28;20412;-78
2022/02/23 08:56:37;;;;;;;12.30;2.83;;;5.30;96.30;;;;;;4973365;28;20424;-78
2022/02/23 08:59:02;;;;;;;6.33;1.67;;;5.20;96.30;;;;;;4955729;28;20456;-76
2022/02/23 09:01:29;;;;;;;5.60;1.70;;;5.20;96.30;;;;;;4955966;28;20441;-75
2022/02/23 09:03:56;;;;;;;9.77;1.97;;;5.20;96.30;;;;;;4973296;28;20162;-76
2022/02/23 09:06:22;;;;;;;11.17;2.10;;;5.30;96.30;;;;;;4973202;28;20489;-75
2022/02/23 09:08:48;;;;;;;9.97;1.80;;;5.40;96.30;;;;;;4955904;28;20825;-75
2022/02/23 09:11:15;;;;;;;6.00;1.80;;;5.50;96.30;;;;;;4973325;28;20464;-75
2022/02/23 09:13:41;;;;;;;8.00;2.43;;;5.50;96.30;;;;;;4955845;28;20429;-76
2022/02/23 09:16:06;;;;;;;8.50;2.30;;;5.60;96.30;;;;;;4973143;28;20707;-76
2022/02/23 09:18:33;;;;;;;11.53;2.20;;;5.80;96.30;;;;;;4955476;28;20210;-78
2022/02/23 09:21:00;;;;;;;5.97;1.50;;;5.70;96.30;;;;;;4973036;28;20190;-76
2022/02/23 09:23:27;;;;;;;4.63;1.90;;;5.60;96.30;;;;;;4955622;28;20437;-78
2022/02/23 09:25:54;;;;;;;14.40;2.17;;;5.40;96.30;;;;;;4972997;28;20417;-78
2022/02/23 09:28:20;;;;;;;10.43;1.73;;;5.70;96.30;;;;;;4972762;28;20822;-78
2022/02/23 09:30:46;;;;;;;6.83;1.70;;;5.60;96.30;;;;;;4972904;28;20441;-78
2022/02/23 09:33:11;;;;;;;4.30;1.47;;;6.00;96.30;;;;;;4972902;28;20182;-78
2022/02/23 09:35:37;;;;;;;7.17;1.47;;;6.40;96.30;;;;;;4972947;28;20552;-78
2022/02/23 09:38:03;;;;;;;6.40;1.13;;;7.10;96.30;;;;;;4972608;28;20209;-78
2022/02/23 09:40:28;;;;;;;7.20;1.70;;;6.90;96.30;;;;;;4955537;28;20261;-78
2022/02/23 09:42:54;;;;;;;9.73;2.00;;;6.30;96.30;;;;;;4972891;28;20425;-78
2022/02/23 09:45:20;;;;;;;11.23;2.63;;;6.30;96.30;;;;;;4972947;28;20171;-79
2022/02/23 09:47:46;;;;;;;16.03;2.17;;;7.10;96.30;;;;;;4955427;28;20182;-76
2022/02/23 09:50:22;;;;;;;13.37;2.23;;;7.40;96.30;;;;;;4972741;28;20170;-76
2022/02/23 09:52:49;;;;;;;4.10;1.60;;;7.80;96.30;;;;;;4973037;28;20848;-77
2022/02/23 09:55:15;;;;;;;6.83;1.80;;;8.20;96.30;;;;;;4972692;28;20414;-75
2022/02/23 09:57:41;;;;;;;7.43;1.70;;;8.40;96.30;;;;;;4972438;28;20557;-74
2022/02/23 10:00:08;;;;;;;6.80;1.70;;;8.20;96.30;;;;;;4972823;28;20409;-75
2022/02/23 10:02:35;;;;;;;4.97;1.67;;;8.20;96.30;;;;;;4976280;28;20178;-75
2022/02/23 10:05:03;;;;;;;8.83;1.80;;;8.40;96.30;;;;;;4976113;28;20420;-76
2022/02/23 10:07:31;;;;;;;7.70;2.10;;;9.10;96.30;;;;;;4975956;28;20413;-77
2022/02/23 10:10:00;;;;;;;7.57;1.83;;;8.90;96.30;;;;;;4976108;28;20495;-77
2022/02/23 10:12:26;;;;;;;11.97;2.30;;;8.70;96.30;;;;;;4976055;28;20492;-76
2022/02/23 10:15:13;;;;;;;3.53;1.40;;;8.20;96.30;;;;;;4958679;28;20449;-76
2022/02/23 10:17:44;;;;;;;8.77;2.53;;;8.10;96.30;;;;;;4958346;28;20479;-77
2022/02/23 10:20:28;;;;;;;7.03;2.33;;;7.70;96.30;;;;;;4958827;28;20793;-74
2022/02/23 10:22:58;;;;;;;9.73;2.37;;;7.10;96.30;;;;;;4975787;28;20512;-74
2022/02/23 10:25:33;;;;;;;9.27;2.10;;;6.50;96.30;;;;;;4975955;28;20817;-75
2022/02/23 10:28:08;;;;;;;9.73;1.50;;;6.90;96.30;;;;;;4975621;28;20398;-76
2022/02/23 10:30:35;;;;;;;6.80;2.23;;;6.90;96.30;;;;;;4975714;28;20433;-76
2022/02/23 10:33:19;;;;;;;5.60;1.60;;;7.30;96.30;;;;;;4975744;28;20420;-76
2022/02/23 10:36:00;;;;;;;8.50;2.43;;;7.80;96.30;;;;;;4958346;28;20421;-76
2022/02/23 10:38:32;;;;;;;8.33;1.83;;;7.90;96.30;;;;;;4975286;28;20449;-76
2022/02/23 10:41:00;;;;;;;9.87;1.90;;;7.20;96.30;;;;;;4958202;28;20492;-77
2022/02/23 10:43:34;;;;;;;6.70;1.60;;;7.40;96.30;;;;;;4975631;28;20911;-76
2022/02/23 10:46:02;;;;;;;8.03;1.97;;;7.80;96.30;;;;;;4958223;28;20410;-76
2022/02/23 10:48:36;;;;;;;6.60;2.20;;;8.50;96.30;;;;;;4975244;28;20418;-76
2022/02/23 10:51:03;;;;;;;10.70;2.40;;;7.80;96.30;;;;;;4975388;28;20515;-76
2022/02/23 10:53:31;;;;;;;4.53;1.67;;;7.70;96.30;;;;;;4975428;28;20464;-76
2022/02/23 10:55:57;;;;;;;7.70;1.77;;;8.10;96.30;;;;;;4957963;28;20509;-76
2022/02/23 10:58:28;;;;;;;4.00;1.60;;;9.00;96.30;;;;;;4975014;28;21022;-76
2022/02/23 11:00:55;;;;;;;10.90;2.00;;;9.90;96.30;;;;;;4975160;28;20460;-77
2022/02/23 11:03:22;;;;;;;12.30;2.10;;;10.20;96.30;;;;;;4975137;28;20410;-76
2022/02/23 11:05:50;;;;;;;6.83;1.60;;;9.80;96.30;;;;;;4975071;28;20407;-76
2022/02/23 11:08:16;;;;;;;10.30;2.00;;;9.70;96.30;;;;;;4974836;28;20472;-77
2022/02/23 11:10:43;;;;;;;8.43;1.97;;;9.70;96.30;;;;;;4957711;28;20442;-76
2022/02/23 11:13:15;;;;;;;6.83;1.60;;;9.70;96.30;;;;;;4974853;28;20182;-76
2022/02/23 11:15:45;;;;;;;8.60;1.73;;;9.80;96.30;;;;;;4975021;28;20492;-76
2022/02/23 11:18:15;;;;;;;8.20;1.90;;;9.40;96.30;;;;;;4974680;28;20449;-76
2022/02/23 11:20:43;;;;;;;13.40;2.13;;;9.40;96.30;;;;;;4974819;28;20437;-76
2022/02/23 11:23:15;;;;;;;7.67;1.50;;;9.40;96.30;;;;;;4975302;28;20454;-78
2022/02/23 11:25:41;;;;;;;6.67;2.00;;;9.30;96.30;;;;;;4975337;28;20472;-79
2022/02/23 11:28:10;;;;;;;5.43;1.70;;;8.90;96.30;;;;;;4974757;28;20417;-78
2022/02/23 12:09:45;;;;;;;4.80;1.20;;;8.30;96.30;;;;;;5104586;23;20487;-75
2022/02/23 12:12:35;;;;;;;6.53;1.43;;;8.70;96.30;;;;;;4996443;28;20528;-74
2022/02/23 12:15:03;;;;;;;5.13;1.67;;;8.40;96.30;;;;;;4975893;28;20424;-75
2022/02/23 12:17:49;;;;;;;6.97;1.37;;;8.60;96.30;;;;;;4992978;28;20413;-74
2022/02/23 12:20:36;;;;;;;13.07;1.73;;;8.90;96.30;;;;;;4993126;28;20412;-75
2022/02/23 12:23:02;;;;;;;6.17;1.23;;;8.80;96.30;;;;;;4992363;28;20922;-74
2022/02/23 12:25:52;;;;;;;4.37;1.93;;;9.00;96.30;;;;;;4992984;28;20409;-74
2022/02/23 12:28:20;;;;;;;5.37;1.23;;;8.80;96.30;;;;;;4992902;28;20174;-74
2022/02/23 12:30:56;;;;;;;7.77;1.30;;;8.60;96.30;;;;;;4992959;28;20435;-75
2022/02/23 12:33:22;;;;;;;6.37;1.30;;;8.90;96.30;;;;;;4993065;28;20452;-74
2022/02/23 12:35:50;;;;;;;6.77;1.47;;;8.60;96.30;;;;;;4992928;28;20831;-74
2022/02/23 12:38:25;;;;;;;4.90;1.50;;;8.10;96.30;;;;;;4992658;28;20331;-75
2022/02/23 12:40:55;;;;;;;3.07;1.03;;;8.40;96.30;;;;;;4992906;28;20420;-74
2022/02/23 12:43:20;;;;;;;6.33;1.93;;;8.90;96.30;;;;;;4992855;28;20977;-74
2022/02/23 12:45:51;;;;;;;5.17;1.60;;;9.10;96.30;;;;;;4992914;28;20500;-74
2022/02/23 12:48:17;;;;;;;6.80;1.60;;;9.10;96.30;;;;;;4992576;28;20169;-74
2022/02/23 12:50:42;;;;;;;6.73;1.17;;;9.50;96.30;;;;;;4992673;28;20444;-74
2022/02/23 12:53:08;;;;;;;8.83;2.07;;;9.70;96.30;;;;;;4975336;28;20173;-74
2022/02/23 12:55:34;;;;;;;6.47;1.70;;;10.10;96.30;;;;;;4975335;28;20189;-75
2022/02/23 12:58:00;;;;;;;9.70;2.43;;;9.60;96.30;;;;;;4992274;28;20488;-75
2022/02/23 13:00:31;;;;;;;7.33;1.53;;;9.20;96.30;;;;;;4992736;28;20177;-74
2022/02/23 13:03:07;;;;;;;4.67;1.70;;;9.00;96.30;;;;;;4992591;28;20420;-74
2022/02/23 13:05:39;;;;;;;3.30;1.20;;;9.30;96.30;;;;;;4992607;28;20444;-74
2022/02/23 13:08:08;;;;;;;5.73;1.87;;;9.30;96.30;;;;;;4992233;28;20424;-75
2022/02/23 13:10:34;;;;;;;9.93;1.80;;;9.30;96.30;;;;;;4992426;28;20459;-75
2022/02/23 13:13:00;;;;;;;5.07;1.40;;;9.00;96.30;;;;;;4992592;28;20500;-74
2022/02/23 13:15:26;;;;;;;8.97;1.40;;;9.30;96.30;;;;;;4992624;28;20177;-74
2022/02/23 13:17:51;;;;;;;6.30;1.80;;;8.90;96.30;;;;;;4992272;28;20557;-74
2022/02/23 13:20:21;;;;;;;4.30;1.53;;;8.40;96.30;;;;;;4992657;28;20205;-74
2022/02/23 13:22:47;;;;;;;10.53;1.60;;;8.60;96.30;;;;;;4992565;28;20173;-75
2022/02/23 13:25:14;;;;;;;5.93;1.70;;;8.90;96.30;;;;;;4992601;28;20413;-74
2022/02/23 13:27:39;;;;;;;10.33;2.03;;;9.00;96.30;;;;;;4992404;28;20937;-74
2022/02/23 13:30:06;;;;;;;4.57;1.60;;;8.90;96.30;;;;;;4992536;28;20416;-75
2022/02/23 13:32:34;;;;;;;6.17;1.70;;;9.20;96.30;;;;;;4992373;28;20194;-75
2022/02/23 13:35:04;;;;;;;9.27;2.00;;;9.40;96.30;;;;;;4993858;28;20778;-75
2022/02/23 13:37:35;;;;;;;5.43;2.00;;;9.30;96.30;;;;;;4995978;28;20488;-74
2022/02/23 13:40:12;;;;;;;5.07;1.43;;;9.30;96.30;;;;;;4996282;28;20495;-75
2022/02/23 13:42:39;;;;;;;5.73;1.30;;;9.50;96.30;;;;;;4996225;28;20914;-75
2022/02/23 13:45:10;;;;;;;7.40;2.10;;;9.50;95.70;;;;;;4996405;28;20417;-74
2022/02/23 13:47:42;;;;;;;7.87;1.40;;;9.00;96.30;;;;;;4996157;28;20416;-75
2022/02/23 13:50:14;;;;;;;9.17;1.60;;;9.00;96.30;;;;;;4978589;28;20424;-75
2022/02/23 13:53:01;;;;;;;7.63;1.43;;;8.50;96.30;;;;;;4978813;28;20810;-74
2022/02/23 13:55:29;;;;;;;3.30;1.10;;;8.40;96.30;;;;;;4996087;28;20408;-75
2022/02/23 13:58:05;;;;;;;7.33;1.30;;;8.60;96.30;;;;;;4995875;28;20452;-75
2022/02/23 14:00:40;;;;;;;6.57;2.37;;;8.80;96.30;;;;;;4995765;28;20922;-74
2022/02/23 14:03:12;;;;;;;6.43;1.40;;;8.80;96.30;;;;;;4995856;28;20918;-74
2022/02/23 14:05:39;;;;;;;2.83;1.17;;;8.90;96.30;;;;;;4978261;28;20417;-74
2022/02/23 14:08:07;;;;;;;5.60;1.60;;;9.10;95.40;;;;;;4995333;28;20444;-74
2022/02/23 14:10:38;;;;;;;10.60;1.80;;;9.10;96.30;;;;;;4995577;28;20953;-75
2022/02/23 14:13:07;;;;;;;9.70;1.70;;;9.20;96.30;;;;;;4995476;28;20466;-75
2022/02/23 14:15:34;;;;;;;8.20;1.77;;;9.20;96.00;;;;;;4995676;28;20818;-75
2022/02/23 14:18:26;;;;;;;7.03;1.47;;;9.00;96.30;;;;;;4995171;28;20458;-75
2022/02/23 14:20:54;;;;;;;4.80;1.33;;;8.90;96.30;;;;;;4995473;28;20420;-74
2022/02/23 14:23:21;;;;;;;4.83;1.40;;;9.10;96.30;;;;;;4977939;28;21121;-74
2022/02/23 14:25:54;;;;;;;3.47;1.07;;;9.00;95.70;;;;;;4995413;28;20917;-75
2022/02/23 14:28:37;;;;;;;5.07;1.27;;;9.00;96.30;;;;;;4995202;28;20419;-74
2022/02/23 14:31:23;;;;;;;9.63;2.70;;;9.10;96.10;;;;;;4995291;28;20955;-75
2022/02/23 14:33:54;;;;;;;9.60;2.17;;;9.00;93.80;;;;;;4995102;28;20440;-74
2022/02/23 14:36:21;;;;;;;6.77;1.23;;;9.10;95.30;;;;;;4977772;28;20429;-75
2022/02/23 14:38:47;;;;;;;3.13;1.30;;;9.20;94.10;;;;;;4994828;28;20463;-75
2022/02/23 14:41:13;;;;;;;6.20;1.40;;;9.30;96.10;;;;;;4995064;28;20428;-75
2022/02/23 14:43:38;;;;;;;7.03;1.10;;;9.40;95.10;;;;;;4995047;28;20554;-74
2022/02/23 14:46:04;;;;;;;3.53;1.40;;;9.50;94.40;;;;;;4994471;28;20640;-74
2022/02/23 14:48:30;;;;;;;4.13;1.67;;;9.40;95.50;;;;;;4994733;28;20244;-74
2022/02/23 14:50:56;;;;;;;12.83;1.90;;;8.90;92.80;;;;;;4994934;28;20263;-74
2022/02/23 14:53:23;;;;;;;3.43;1.30;;;8.80;94.30;;;;;;4977583;28;20200;-75
2022/02/23 14:55:48;;;;;;;3.20;1.23;;;8.90;95.00;;;;;;4994785;28;20181;-74
2022/02/23 14:58:15;;;;;;;6.53;1.33;;;8.40;95.00;;;;;;4994454;28;20515;-74
2022/02/23 15:00:42;;;;;;;3.93;1.60;;;8.30;95.00;;;;;;4994553;28;20611;-75
2022/02/23 15:03:09;;;;;;;4.10;1.10;;;8.20;96.30;;;;;;4994844;28;20733;-75
2022/02/23 15:05:36;;;;;;;4.83;1.00;;;8.20;94.70;;;;;;4994451;28;20459;-74
2022/02/23 15:08:04;;;;;;;4.13;1.17;;;8.10;95.10;;;;;;4994276;28;20494;-75
2022/02/23 15:10:31;;;;;;;5.90;1.93;;;8.00;96.30;;;;;;4994567;28;20464;-74
2022/02/23 15:12:56;;;;;;;2.00;1.00;;;8.00;96.00;;;;;;4994504;28;20424;-74
2022/02/23 15:15:22;;;;;;;5.27;1.20;;;8.00;96.20;;;;;;4994402;28;20416;-75
2022/02/23 15:17:50;;;;;;;4.20;1.50;;;7.80;96.30;;;;;;4994060;28;20220;-74
2022/02/23 15:20:15;;;;;;;10.10;1.57;;;7.70;96.30;;;;;;4994397;28;20640;-74
2022/02/23 15:22:41;;;;;;;5.20;1.47;;;7.50;96.30;;;;;;4994246;28;20977;-74
2022/02/23 15:25:06;;;;;;;6.20;1.40;;;7.50;96.30;;;;;;4994281;28;20170;-74
2022/02/23 15:27:32;;;;;;;5.27;1.57;;;7.50;96.30;;;;;;4994008;28;20197;-74
2022/02/23 15:29:58;;;;;;;6.17;1.17;;;7.40;96.30;;;;;;4994152;28;20651;-75
2022/02/23 15:32:24;;;;;;;3.13;1.30;;;7.30;96.30;;;;;;4994058;28;20205;-74
2022/02/23 15:34:50;;;;;;;7.50;2.43;;;7.30;96.30;;;;;;4994118;28;20170;-74
2022/02/23 15:37:16;;;;;;;3.13;1.30;;;7.30;96.30;;;;;;4994023;28;20417;-74
2022/02/23 15:39:42;;;;;;;2.93;1.40;;;7.20;96.30;;;;;;4993819;28;20329;-74
2022/02/23 15:42:07;;;;;;;4.67;1.97;;;7.10;96.30;;;;;;4993849;28;20204;-74
2022/02/23 15:44:33;;;;;;;4.73;2.07;;;7.00;96.30;;;;;;4993858;28;20178;-74
2022/02/23 15:46:59;;;;;;;4.63;1.37;;;6.90;96.30;;;;;;4993752;28;20643;-74
2022/02/23 15:49:26;;;;;;;5.40;1.50;;;6.80;96.30;;;;;;4993599;28;20694;-75
2022/02/23 15:51:51;;;;;;;5.70;1.60;;;6.60;96.30;;;;;;4993554;28;20852;-75
2022/02/23 15:54:17;;;;;;;6.10;1.40;;;6.50;96.30;;;;;;4993705;28;20505;-74
2022/02/23 15:56:42;;;;;;;5.33;1.77;;;6.40;96.30;;;;;;4993616;28;20662;-74
2022/02/23 15:59:08;;;;;;;3.60;1.27;;;6.30;96.30;;;;;;4974914;28;20201;-75
2022/02/23 16:01:34;;;;;;;6.90;1.40;;;6.20;96.30;;;;;;4976029;28;20201;-78
2022/02/23 16:04:00;;;;;;;6.60;1.50;;;6.00;96.30;;;;;;4993565;28;20174;-75
2022/02/23 16:06:27;;;;;;;2.80;1.00;;;5.90;96.30;;;;;;4993522;28;20644;-75
2022/02/23 16:08:53;;;;;;;3.10;1.57;;;5.80;96.30;;;;;;4993196;28;20956;-74
2022/02/23 16:11:20;;;;;;;2.00;1.10;;;5.70;96.30;;;;;;4975951;28;20449;-75
2022/02/23 16:13:47;;;;;;;2.60;1.20;;;5.70;96.30;;;;;;4975988;28;20421;-74
2022/02/23 16:16:13;;;;;;;5.70;1.57;;;5.60;96.30;;;;;;4975885;28;20404;-75
2022/02/23 16:18:40;;;;;;;10.63;1.63;;;5.40;96.30;;;;;;4993040;28;20463;-75
2022/02/23 16:21:06;;;;;;;10.47;2.00;;;5.50;96.30;;;;;;4993195;28;20949;-74
2022/02/23 16:23:32;;;;;;;3.00;1.60;;;5.50;96.30;;;;;;4993264;28;20411;-74
2022/02/23 16:25:58;;;;;;;5.23;2.07;;;5.40;96.30;;;;;;4993118;28;20495;-74
2022/02/23 16:28:23;;;;;;;6.43;2.07;;;5.40;96.30;;;;;;4992867;28;20601;-74
2022/02/23 16:30:49;;;;;;;6.17;1.30;;;5.20;96.30;;;;;;4992929;28;20198;-75
2022/02/23 16:33:15;;;;;;;7.17;2.10;;;5.10;96.30;;;;;;4993079;28;20253;-75
2022/02/23 16:35:42;;;;;;;4.73;1.60;;;5.20;96.30;;;;;;4993043;28;20180;-75
2022/02/23 16:38:09;;;;;;;6.23;3.00;;;5.10;96.30;;;;;;4992717;28;20448;-75
2022/02/23 16:40:38;;;;;;;8.47;2.10;;;5.00;96.30;;;;;;4975485;28;20429;-74
2022/02/23 16:43:04;;;;;;;10.50;3.60;;;4.80;96.30;;;;;;4992837;28;20449;-74
2022/02/23 16:45:29;;;;;;;4.53;1.37;;;4.70;96.30;;;;;;4992881;28;20471;-75
2022/02/23 16:47:55;;;;;;;3.50;1.50;;;4.50;96.30;;;;;;4992579;28;20421;-75
2022/02/23 16:50:21;;;;;;;3.90;1.60;;;4.50;96.30;;;;;;4992650;28;20269;-74
2022/02/23 16:52:48;;;;;;;6.03;2.17;;;4.30;96.30;;;;;;4992441;28;20265;-74
2022/02/23 16:55:14;;;;;;;3.87;2.00;;;4.10;96.30;;;;;;4992802;28;20409;-74
2022/02/23 16:57:40;;;;;;;15.63;6.97;;;4.00;96.30;;;;;;4992322;28;20921;-75
2022/02/23 17:00:08;;;;;;;6.70;2.73;;;4.00;96.30;;;;;;4974769;28;20417;-75
2022/02/23 17:02:34;;;;;;;8.60;4.43;;;4.20;96.30;;;;;;4977457;28;20233;-76
2022/02/23 17:04:59;;;;;;;7.27;3.43;;;4.30;96.30;;;;;;4973275;28;20422;-74
2022/02/23 17:07:25;;;;;;;9.57;1.83;;;4.50;96.30;;;;;;4972834;28;20170;-75
2022/02/23 17:09:50;;;;;;;4.97;1.87;;;4.50;96.30;;;;;;4972709;28;20658;-75
2022/02/23 17:12:16;;;;;;;13.50;2.50;;;4.50;96.30;;;;;;4973040;28;20273;-75
2022/02/23 17:14:41;;;;;;;5.37;1.60;;;4.40;96.30;;;;;;4975978;28;20192;-74
2022/02/23 17:17:08;;;;;;;6.60;2.10;;;4.50;96.30;;;;;;4983291;28;20710;-77
2022/02/23 17:19:39;;;;;;;5.80;1.93;;;4.30;96.30;;;;;;4985249;28;20197;-75
2022/02/23 17:22:05;;;;;;;5.30;1.80;;;4.20;96.30;;;;;;4964583;28;20452;-75
2022/02/23 17:24:31;;;;;;;3.97;1.57;;;3.90;96.30;;;;;;4995330;28;20469;-75
2022/02/23 17:26:57;;;;;;;8.90;3.67;;;4.00;96.30;;;;;;4994152;28;20192;-75
2022/02/23 17:29:23;;;;;;;6.10;2.50;;;4.10;96.30;;;;;;4980671;28;20429;-74
2022/02/23 17:31:49;;;;;;;6.97;2.20;;;4.30;96.30;;;;;;4988821;28;20236;-74
2022/02/23 17:34:16;;;;;;;11.00;3.00;;;4.10;96.30;;;;;;4991931;28;20182;-75
2022/02/23 17:36:45;;;;;;;6.87;3.23;;;4.20;96.30;;;;;;4992213;28;20417;-75
2022/02/23 17:39:11;;;;;;;9.40;2.83;;;4.10;96.30;;;;;;4990769;28;20467;-75
2022/02/23 17:41:37;;;;;;;6.90;2.40;;;4.10;96.30;;;;;;4992296;28;20519;-75
2022/02/23 17:44:03;;;;;;;10.43;5.03;;;4.00;96.30;;;;;;4992072;28;20560;-75